Time;durP1;ratioP1;P1;durP2;ratioP2;P2;SDS_P1;SDS_P2;PMS_P1;PMS_P2;Temp;Humidity;BMP_temperature;BMP_pressure;BME280_temperature;BME280_humidity;BME280_pressure;Samples;Min_cycle;Max_cycle;Signal;HPM_P1;HPM_P2
2022/08/04 00:01:32;;;;;;;11.77;6.85;;;21.10;99.90;;;;;;5062154;28;20093;-73
2022/08/04 00:04:02;;;;;;;13.65;6.68;;;21.10;99.90;;;;;;5077640;28;20056;-75
2022/08/04 00:06:54;;;;;;;14.27;6.95;;;21.00;99.90;;;;;;5061888;28;20040;-73
2022/08/04 00:09:46;;;;;;;13.93;7.20;;;21.00;99.90;;;;;;5067295;28;20139;-72
2022/08/04 00:12:15;;;;;;;13.15;6.80;;;21.00;99.90;;;;;;5060419;28;20063;-72
2022/08/04 00:14:48;;;;;;;15.88;6.82;;;21.00;99.90;;;;;;5077993;28;20398;-73
2022/08/04 00:17:18;;;;;;;11.93;7.18;;;21.00;99.90;;;;;;5096701;28;20036;-73
2022/08/04 00:19:47;;;;;;;12.07;6.85;;;21.00;99.90;;;;;;5077475;28;20071;-73
2022/08/04 00:22:18;;;;;;;12.85;6.43;;;20.90;99.90;;;;;;5078439;28;20132;-73
2022/08/04 00:24:45;;;;;;;12.80;6.97;;;20.90;99.90;;;;;;5070752;28;20051;-73
2022/08/04 00:27:12;;;;;;;12.07;7.10;;;20.90;99.90;;;;;;5047322;28;20498;-73
2022/08/04 00:29:39;;;;;;;14.98;7.18;;;20.80;99.90;;;;;;5078269;28;20415;-73
2022/08/04 00:32:07;;;;;;;12.70;7.00;;;20.80;99.90;;;;;;5077371;28;20036;-73
2022/08/04 00:34:33;;;;;;;13.40;7.00;;;20.80;99.90;;;;;;5060222;28;20040;-72
2022/08/04 00:36:59;;;;;;;12.98;7.20;;;20.80;99.90;;;;;;5075526;28;20469;-72
2022/08/04 00:39:26;;;;;;;13.20;7.57;;;20.80;99.90;;;;;;5058546;28;20406;-72
2022/08/04 00:42:00;;;;;;;12.85;7.50;;;20.80;99.90;;;;;;5058097;28;20119;-73
2022/08/04 00:45:02;;;;;;;13.57;7.68;;;20.80;99.90;;;;;;5077085;28;20167;-72
2022/08/04 00:48:05;;;;;;;12.32;7.35;;;20.80;99.90;;;;;;5061396;28;20044;-73
2022/08/04 00:50:43;;;;;;;14.43;7.70;;;20.80;99.90;;;;;;5058717;28;20053;-71
2022/08/04 00:53:31;;;;;;;14.63;7.85;;;20.70;99.90;;;;;;5043511;28;20552;-71
2022/08/04 00:56:22;;;;;;;15.63;7.95;;;20.70;99.90;;;;;;5058884;28;20049;-72
2022/08/04 00:59:03;;;;;;;14.83;7.90;;;20.60;99.90;;;;;;5041141;28;20053;-72
2022/08/04 01:01:51;;;;;;;13.25;7.75;;;20.60;99.90;;;;;;5060472;28;20294;-71
2022/08/04 01:04:55;;;;;;;13.35;7.82;;;20.60;99.90;;;;;;5054084;28;20054;-71
2022/08/04 01:07:24;;;;;;;15.50;8.15;;;20.60;99.90;;;;;;4978278;28;20097;-72
2022/08/04 01:10:07;;;;;;;13.10;8.23;;;20.60;99.90;;;;;;4997907;28;20196;-72
2022/08/04 01:12:33;;;;;;;14.95;7.97;;;20.50;99.90;;;;;;5016671;28;20132;-70
2022/08/04 01:15:09;;;;;;;17.05;8.23;;;20.50;99.90;;;;;;5078286;28;20593;-72
2022/08/04 01:17:34;;;;;;;14.85;7.75;;;20.50;99.90;;;;;;5070337;28;20079;-71
2022/08/04 01:20:05;;;;;;;13.70;7.90;;;20.50;99.90;;;;;;5091787;28;20181;-71
2022/08/04 01:22:31;;;;;;;13.27;7.95;;;20.40;99.90;;;;;;5075183;28;20087;-71
2022/08/04 01:25:14;;;;;;;13.75;7.97;;;20.40;99.90;;;;;;5058200;28;20665;-70
2022/08/04 01:27:49;;;;;;;13.45;8.00;;;20.40;99.90;;;;;;5058758;28;20071;-71
2022/08/04 01:30:15;;;;;;;16.17;8.35;;;20.30;99.90;;;;;;5060887;28;20044;-72
2022/08/04 01:33:00;;;;;;;13.80;7.85;;;20.30;99.90;;;;;;5041467;28;20536;-71
2022/08/04 01:35:46;;;;;;;18.00;8.50;;;20.20;99.90;;;;;;5072417;28;20502;-72
2022/08/04 01:38:21;;;;;;;17.00;8.40;;;20.20;99.90;;;;;;5057086;28;20052;-72
2022/08/04 01:40:50;;;;;;;14.98;8.05;;;20.10;99.90;;;;;;5075839;28;20059;-76
2022/08/04 01:43:16;;;;;;;13.57;8.07;;;20.10;99.90;;;;;;5057505;28;20084;-73
2022/08/04 01:45:50;;;;;;;15.05;8.00;;;20.00;99.90;;;;;;5057563;28;20128;-72
2022/08/04 01:48:21;;;;;;;16.05;7.90;;;20.00;99.90;;;;;;5070498;28;20468;-72
2022/08/04 01:50:49;;;;;;;13.55;7.63;;;20.00;99.90;;;;;;5061034;28;20136;-75
2022/08/04 01:53:15;;;;;;;12.65;8.07;;;19.90;99.90;;;;;;5058562;28;20109;-72
2022/08/04 01:55:41;;;;;;;14.25;8.18;;;19.90;99.90;;;;;;5057429;28;20058;-72
2022/08/04 01:58:08;;;;;;;15.10;8.05;;;19.90;99.90;;;;;;5059677;28;20495;-74
2022/08/04 02:00:39;;;;;;;14.88;7.90;;;19.90;99.90;;;;;;5058566;28;20063;-72
2022/08/04 02:03:05;;;;;;;14.63;8.13;;;19.90;99.90;;;;;;5058722;28;20396;-73
2022/08/04 02:05:30;;;;;;;14.82;7.75;;;20.00;99.90;;;;;;5039259;28;20051;-72
2022/08/04 02:07:59;;;;;;;12.50;7.55;;;19.90;99.90;;;;;;5060803;28;20099;-72
2022/08/04 02:10:46;;;;;;;13.32;7.05;;;19.90;99.90;;;;;;5058117;28;20049;-70
2022/08/04 02:13:42;;;;;;;12.10;7.32;;;20.00;99.90;;;;;;5060052;28;20479;-71
2022/08/04 02:16:38;;;;;;;15.55;7.55;;;19.90;99.90;;;;;;5058470;28;20056;-73
2022/08/04 02:19:11;;;;;;;17.35;8.00;;;19.90;99.90;;;;;;5077035;28;20074;-72
2022/08/04 02:21:40;;;;;;;14.13;7.35;;;19.80;99.90;;;;;;5060501;28;20448;-71
2022/08/04 02:24:08;;;;;;;13.02;7.28;;;19.80;99.90;;;;;;5057387;28;20098;-72
2022/08/04 02:26:36;;;;;;;12.55;6.75;;;19.90;99.90;;;;;;5069570;28;20040;-71
2022/08/04 02:29:24;;;;;;;13.05;7.05;;;19.80;99.90;;;;;;5058646;28;20051;-70
2022/08/04 02:32:02;;;;;;;13.32;7.75;;;19.80;99.90;;;;;;5058228;28;20052;-72
2022/08/04 02:34:36;;;;;;;14.10;7.40;;;19.80;99.90;;;;;;5056520;28;20407;-72
2022/08/04 02:37:03;;;;;;;12.13;7.22;;;19.80;99.90;;;;;;5039354;28;20442;-72
2022/08/04 02:39:34;;;;;;;14.38;7.65;;;19.70;99.90;;;;;;5057118;28;20052;-75
2022/08/04 02:42:02;;;;;;;17.05;7.97;;;19.70;99.90;;;;;;5058795;28;20151;-73
2022/08/04 02:44:30;;;;;;;14.10;7.60;;;19.70;99.90;;;;;;5041623;28;20445;-73
2022/08/04 02:46:58;;;;;;;11.15;7.35;;;19.70;99.90;;;;;;5056842;28;20472;-72
2022/08/04 02:49:25;;;;;;;14.23;7.80;;;19.60;99.90;;;;;;5071804;28;20405;-73
2022/08/04 02:51:53;;;;;;;15.30;7.75;;;19.60;99.90;;;;;;5056180;28;20040;-72
2022/08/04 02:54:24;;;;;;;14.23;7.53;;;19.60;99.90;;;;;;5065726;28;20047;-72
2022/08/04 02:56:54;;;;;;;16.35;7.65;;;19.60;99.90;;;;;;5050985;28;20106;-73
2022/08/04 02:59:24;;;;;;;12.10;7.43;;;19.60;99.90;;;;;;5056795;28;20048;-73
2022/08/04 03:01:53;;;;;;;14.75;7.72;;;19.60;99.90;;;;;;5072402;28;20048;-72
2022/08/04 03:04:52;;;;;;;15.63;7.68;;;19.60;99.90;;;;;;5055343;28;20078;-74
2022/08/04 03:07:43;;;;;;;13.38;7.57;;;19.60;99.90;;;;;;5056826;28;20383;-75
2022/08/04 03:10:28;;;;;;;16.73;7.70;;;19.60;99.90;;;;;;5058188;28;20055;-74
2022/08/04 03:13:12;;;;;;;12.30;7.72;;;19.50;99.90;;;;;;5061757;28;20058;-75
2022/08/04 03:15:59;;;;;;;12.27;7.47;;;19.40;99.90;;;;;;5077528;28;20051;-74
2022/08/04 03:18:43;;;;;;;12.95;7.57;;;19.40;99.90;;;;;;5079407;28;20055;-75
2022/08/04 03:21:53;;;;;;;12.40;6.68;;;19.40;99.90;;;;;;5070475;28;20044;-74
2022/08/04 03:24:52;;;;;;;14.95;7.30;;;19.40;99.90;;;;;;5068641;28;20080;-74
2022/08/04 03:27:36;;;;;;;10.35;6.10;;;19.40;99.90;;;;;;5088750;28;20036;-74
2022/08/04 03:30:14;;;;;;;12.13;7.00;;;19.30;99.90;;;;;;5044332;28;20036;-75
2022/08/04 03:32:47;;;;;;;8.95;5.03;;;19.30;99.90;;;;;;5063100;28;20048;-74
2022/08/04 03:35:31;;;;;;;11.88;7.07;;;19.30;99.90;;;;;;5091374;28;20043;-74
2022/08/04 03:38:34;;;;;;;14.80;6.80;;;19.30;99.90;;;;;;5071267;28;20083;-75
2022/08/04 03:41:19;;;;;;;14.60;7.07;;;19.40;99.90;;;;;;5071610;28;20040;-73
2022/08/04 03:44:07;;;;;;;13.10;7.15;;;19.40;99.90;;;;;;5068939;28;20419;-75
2022/08/04 03:47:02;;;;;;;14.85;6.90;;;19.40;99.90;;;;;;5065593;28;20052;-82
2022/08/04 03:49:30;;;;;;;11.70;6.60;;;19.40;99.90;;;;;;5054515;28;20048;-74
2022/08/04 03:54:46;;;;;;;9.93;4.93;;;19.30;99.90;;;;;;5071586;28;20055;-75
2022/08/04 03:57:29;;;;;;;11.65;5.93;;;19.30;99.90;;;;;;5085679;28;20491;-75
2022/08/04 04:00:11;;;;;;;11.40;5.60;;;19.40;99.90;;;;;;5055201;28;20052;-75
2022/08/04 04:02:50;;;;;;;12.65;6.90;;;19.40;99.90;;;;;;5056634;28;20056;-75
2022/08/04 04:05:43;;;;;;;8.85;4.75;;;19.50;99.90;;;;;;5071361;28;20441;-74
2022/08/04 04:08:54;;;;;;;11.13;5.43;;;19.40;99.90;;;;;;5068232;28;20048;-75
2022/08/04 04:11:23;;;;;;;12.07;5.82;;;19.50;99.90;;;;;;5079871;28;20375;-74
2022/08/04 04:14:25;;;;;;;9.50;4.88;;;19.40;99.90;;;;;;5074903;28;20055;-74
2022/08/04 04:17:03;;;;;;;10.57;5.95;;;19.40;99.90;;;;;;5082776;28;20044;-75
2022/08/04 04:19:53;;;;;;;10.25;4.85;;;19.40;99.90;;;;;;5076799;28;20044;-75
2022/08/04 04:22:54;;;;;;;13.52;6.95;;;19.50;99.90;;;;;;5078428;28;20087;-75
2022/08/04 04:25:52;;;;;;;8.52;5.03;;;19.50;99.90;;;;;;5013857;28;20034;-75
2022/08/04 04:28:31;;;;;;;10.18;4.78;;;19.60;99.90;;;;;;5091930;28;20044;-74
2022/08/04 04:31:32;;;;;;;11.82;6.78;;;19.60;99.90;;;;;;5063482;28;20048;-75
2022/08/04 04:34:30;;;;;;;10.60;5.70;;;19.60;99.90;;;;;;5061397;28;20076;-77
2022/08/04 04:37:36;;;;;;;10.02;5.00;;;19.70;99.90;;;;;;5075735;28;20040;-77
2022/08/04 04:40:38;;;;;;;10.07;5.60;;;19.70;99.90;;;;;;5076726;28;20048;-74
2022/08/04 04:43:29;;;;;;;11.40;5.20;;;19.70;99.90;;;;;;5087815;28;20040;-74
2022/08/04 04:46:31;;;;;;;14.00;5.82;;;19.60;99.90;;;;;;5065633;28;20055;-75
2022/08/04 04:49:36;;;;;;;13.55;6.97;;;19.60;99.90;;;;;;5094519;28;20040;-77
2022/08/04 04:52:19;;;;;;;13.65;6.75;;;19.70;99.90;;;;;;5091575;28;20088;-74
2022/08/04 04:55:01;;;;;;;12.57;6.05;;;19.70;99.90;;;;;;5074267;28;20057;-74
2022/08/04 04:57:33;;;;;;;14.82;6.78;;;19.70;99.90;;;;;;5059038;28;20047;-74
2022/08/04 05:00:08;;;;;;;15.68;6.57;;;19.70;99.90;;;;;;5074489;28;20052;-74
2022/08/04 05:03:04;;;;;;;12.70;5.95;;;19.70;99.90;;;;;;5076022;28;20055;-74
2022/08/04 05:05:51;;;;;;;13.43;6.55;;;19.70;99.90;;;;;;5074989;28;20052;-74
2022/08/04 05:08:50;;;;;;;13.60;6.70;;;19.70;99.90;;;;;;5077385;28;20062;-73
2022/08/04 05:11:27;;;;;;;9.70;4.85;;;19.80;99.90;;;;;;5077811;28;20055;-74
2022/08/04 05:13:57;;;;;;;13.15;5.85;;;19.80;99.90;;;;;;5074001;28;20053;-76
2022/08/04 05:16:58;;;;;;;11.77;6.13;;;19.90;99.90;;;;;;5074253;28;20403;-74
2022/08/04 05:19:39;;;;;;;13.38;6.28;;;19.90;99.90;;;;;;5056200;28;20055;-73
2022/08/04 05:22:12;;;;;;;15.55;6.70;;;20.00;99.90;;;;;;5095349;28;20062;-73
2022/08/04 05:24:41;;;;;;;14.00;5.55;;;20.10;99.90;;;;;;5060452;28;20047;-73
2022/08/04 05:27:24;;;;;;;10.57;5.70;;;20.20;99.90;;;;;;5072817;28;20040;-75
2022/08/04 05:29:57;;;;;;;13.20;5.68;;;20.40;99.90;;;;;;5072902;28;20459;-74
2022/08/04 05:32:28;;;;;;;11.15;5.90;;;20.90;99.90;;;;;;5057607;28;20048;-75
2022/08/04 05:35:06;;;;;;;12.90;5.50;;;21.30;99.90;;;;;;5059482;28;20049;-73
2022/08/04 05:37:36;;;;;;;14.52;5.72;;;21.50;99.90;;;;;;5057607;28;20048;-73
2022/08/04 05:40:04;;;;;;;12.85;5.53;;;21.70;99.90;;;;;;5070370;28;20128;-73
2022/08/04 05:42:34;;;;;;;15.40;5.88;;;21.90;99.90;;;;;;5075675;28;20380;-73
2022/08/04 05:45:01;;;;;;;12.93;5.35;;;22.00;99.90;;;;;;5063575;28;20137;-74
2022/08/04 05:47:30;;;;;;;17.45;5.72;;;22.10;99.90;;;;;;5040649;28;20443;-74
2022/08/04 05:49:56;;;;;;;12.23;5.57;;;22.20;99.90;;;;;;5066074;28;20052;-73
2022/08/04 05:52:23;;;;;;;12.55;5.70;;;22.30;99.90;;;;;;5084729;28;20045;-73
2022/08/04 05:54:51;;;;;;;13.05;5.00;;;22.50;99.90;;;;;;5084808;28;20051;-74
2022/08/04 05:57:18;;;;;;;13.07;4.75;;;22.80;99.90;;;;;;5076161;28;20449;-73
2022/08/04 05:59:48;;;;;;;11.30;4.80;;;23.00;99.90;;;;;;5076057;28;20109;-73
2022/08/04 06:02:17;;;;;;;14.35;4.97;;;23.40;99.90;;;;;;5076417;28;20052;-74
2022/08/04 06:04:46;;;;;;;14.38;4.80;;;23.40;99.90;;;;;;5080769;28;20063;-74
2022/08/04 06:07:12;;;;;;;13.90;4.65;;;23.30;99.90;;;;;;5080401;28;20439;-73
2022/08/04 06:09:40;;;;;;;10.70;4.53;;;23.30;99.90;;;;;;5073893;28;20108;-73
2022/08/04 06:12:24;;;;;;;12.07;4.65;;;23.20;99.90;;;;;;5079605;28;20402;-73
2022/08/04 06:14:53;;;;;;;10.18;4.20;;;23.20;99.90;;;;;;5070547;28;20495;-74
2022/08/04 06:17:29;;;;;;;11.43;4.70;;;23.30;99.90;;;;;;5088322;28;20044;-74
2022/08/04 06:19:56;;;;;;;14.20;4.65;;;23.40;99.90;;;;;;5063392;28;20561;-73
2022/08/04 06:22:23;;;;;;;14.35;4.65;;;23.50;99.90;;;;;;5076117;28;20399;-75
2022/08/04 06:24:51;;;;;;;10.85;4.35;;;23.60;99.90;;;;;;5072470;28;20110;-73
2022/08/04 06:27:18;;;;;;;12.85;4.68;;;23.80;99.90;;;;;;5069012;28;20089;-73
2022/08/04 06:29:46;;;;;;;12.15;5.13;;;24.20;99.90;;;;;;5061060;28;20127;-74
2022/08/04 06:32:29;;;;;;;12.65;5.50;;;24.50;99.90;;;;;;5076220;28;20051;-74
2022/08/04 06:34:57;;;;;;;13.88;4.60;;;24.60;99.90;;;;;;5075043;28;20044;-74
2022/08/04 06:37:25;;;;;;;13.82;5.30;;;25.20;99.90;;;;;;5072407;28;20432;-74
2022/08/04 06:39:52;;;;;;;12.35;4.85;;;25.70;99.90;;;;;;5072458;28;20057;-77
2022/08/04 06:42:24;;;;;;;12.98;5.13;;;26.10;99.90;;;;;;5052592;28;20040;-74
2022/08/04 06:44:55;;;;;;;14.88;4.93;;;26.20;99.90;;;;;;5057683;28;20491;-74
2022/08/04 06:47:22;;;;;;;12.80;4.80;;;26.20;99.90;;;;;;5074747;28;20097;-78
2022/08/04 06:49:53;;;;;;;13.40;4.68;;;26.10;99.90;;;;;;5066603;28;20059;-74
2022/08/04 06:52:20;;;;;;;14.50;4.72;;;26.20;99.90;;;;;;5076491;28;20056;-72
2022/08/04 06:54:46;;;;;;;11.60;4.57;;;26.50;99.90;;;;;;5023767;28;20038;-72
2022/08/04 06:57:15;;;;;;;9.57;4.70;;;26.70;99.90;;;;;;5071501;28;20402;-72
2022/08/04 06:59:48;;;;;;;9.77;4.90;;;26.60;99.90;;;;;;5057613;28;20064;-72
2022/08/04 07:02:17;;;;;;;10.82;4.90;;;26.50;99.90;;;;;;5071006;28;20495;-73
2022/08/04 07:04:43;;;;;;;11.30;4.90;;;26.40;99.90;;;;;;5073770;28;20177;-71
2022/08/04 07:07:10;;;;;;;11.65;5.05;;;26.50;99.90;;;;;;5073831;28;20044;-71
2022/08/04 07:09:37;;;;;;;11.80;5.25;;;26.50;99.90;;;;;;5073951;28;20052;-73
2022/08/04 07:12:05;;;;;;;14.52;5.65;;;26.70;99.90;;;;;;5058006;28;20056;-71
2022/08/04 07:14:34;;;;;;;11.80;5.90;;;26.80;99.80;;;;;;5068601;28;20044;-71
2022/08/04 07:17:06;;;;;;;13.30;6.00;;;26.80;99.40;;;;;;5061551;28;20075;-72
2022/08/04 07:19:35;;;;;;;13.07;5.90;;;26.90;98.90;;;;;;5064647;28;20052;-72
2022/08/04 07:22:03;;;;;;;12.32;6.05;;;27.00;99.00;;;;;;5061200;28;20055;-72
2022/08/04 07:24:35;;;;;;;11.45;5.93;;;26.90;98.40;;;;;;5062721;28;20051;-72
2022/08/04 07:27:01;;;;;;;12.45;6.68;;;26.70;98.70;;;;;;5060335;28;20115;-71
2022/08/04 07:29:28;;;;;;;13.13;5.78;;;26.60;98.60;;;;;;5064181;28;20053;-71
2022/08/04 07:31:55;;;;;;;10.85;5.35;;;26.80;99.10;;;;;;5062007;28;20047;-71
2022/08/04 07:34:22;;;;;;;11.88;6.32;;;26.80;98.30;;;;;;5075981;28;20044;-71
2022/08/04 07:36:51;;;;;;;11.13;6.05;;;26.80;98.10;;;;;;5060723;28;20066;-71
2022/08/04 07:39:17;;;;;;;11.52;5.75;;;26.80;97.60;;;;;;5090878;28;20060;-72
2022/08/04 07:41:43;;;;;;;11.90;6.07;;;26.80;97.70;;;;;;5074149;28;20084;-72
2022/08/04 07:44:09;;;;;;;12.48;6.45;;;27.10;97.70;;;;;;5074118;28;20091;-71
2022/08/04 07:46:36;;;;;;;12.38;5.20;;;27.20;97.30;;;;;;5074079;28;20040;-73
2022/08/04 07:49:02;;;;;;;15.40;5.65;;;27.10;96.90;;;;;;5072340;28;20050;-73
2022/08/04 07:51:29;;;;;;;11.23;5.80;;;27.20;97.10;;;;;;5074488;28;20044;-71
2022/08/04 07:53:56;;;;;;;13.57;6.10;;;27.20;96.90;;;;;;5076415;28;20036;-74
2022/08/04 07:56:24;;;;;;;13.10;5.30;;;27.40;97.30;;;;;;5078123;28;20118;-72
2022/08/04 07:58:49;;;;;;;11.18;5.65;;;27.50;96.50;;;;;;5077645;28;20444;-72
2022/08/04 08:01:15;;;;;;;14.02;5.95;;;27.50;96.70;;;;;;5095346;28;20040;-71
2022/08/04 08:03:41;;;;;;;11.20;4.93;;;27.70;96.70;;;;;;5076892;28;20052;-75
2022/08/04 08:06:08;;;;;;;11.68;4.88;;;27.90;96.50;;;;;;5075983;28;20049;-71
2022/08/04 08:08:38;;;;;;;10.85;4.65;;;28.10;95.30;;;;;;5077511;28;20048;-72
2022/08/04 08:11:05;;;;;;;12.15;4.50;;;28.40;94.80;;;;;;5077458;28;20048;-71
2022/08/04 08:13:31;;;;;;;12.35;4.70;;;28.60;94.40;;;;;;5077787;28;20169;-74
2022/08/04 08:15:58;;;;;;;11.07;5.35;;;28.70;92.40;;;;;;5072749;28;20086;-73
2022/08/04 08:18:24;;;;;;;9.57;4.35;;;28.40;92.30;;;;;;5057590;28;20044;-71
2022/08/04 08:20:51;;;;;;;11.90;4.68;;;28.20;92.40;;;;;;5081724;28;20044;-73
2022/08/04 08:23:18;;;;;;;13.13;4.50;;;28.10;92.70;;;;;;5074230;28;20052;-72
2022/08/04 08:25:44;;;;;;;12.00;3.88;;;28.00;93.10;;;;;;5044003;28;20053;-71
2022/08/04 08:28:10;;;;;;;10.07;4.03;;;28.00;93.20;;;;;;5068381;28;20051;-71
2022/08/04 08:30:36;;;;;;;10.85;4.20;;;28.00;93.30;;;;;;5080267;28;20041;-72
2022/08/04 08:33:08;;;;;;;9.05;3.83;;;28.00;93.00;;;;;;5058109;28;20067;-73
2022/08/04 08:35:54;;;;;;;10.60;4.00;;;28.10;93.50;;;;;;5073951;28;20045;-73
2022/08/04 08:38:36;;;;;;;9.93;4.07;;;28.20;93.00;;;;;;5058510;28;20053;-73
2022/08/04 08:41:12;;;;;;;10.60;4.00;;;28.00;92.40;;;;;;5059856;28;20041;-73
2022/08/04 08:43:56;;;;;;;9.18;3.70;;;28.00;93.50;;;;;;5061257;28;20127;-73
2022/08/04 08:46:51;;;;;;;12.23;3.50;;;28.50;94.10;;;;;;5076976;28;20037;-72
2022/08/04 08:49:20;;;;;;;11.77;3.40;;;28.80;92.70;;;;;;5083756;28;20055;-72
2022/08/04 08:51:46;;;;;;;11.32;3.30;;;29.00;91.70;;;;;;5095990;28;20177;-73
2022/08/04 08:54:40;;;;;;;10.77;3.58;;;29.20;91.60;;;;;;5095150;28;20503;-74
2022/08/04 08:57:49;;;;;;;11.23;3.20;;;29.40;90.50;;;;;;5095870;28;20048;-72
2022/08/04 09:00:21;;;;;;;8.45;3.35;;;29.40;90.30;;;;;;5089711;28;20130;-72
2022/08/04 09:03:02;;;;;;;9.25;2.92;;;29.40;90.40;;;;;;5083172;28;20086;-71
2022/08/04 09:05:53;;;;;;;12.83;3.50;;;29.50;90.30;;;;;;5094315;28;20509;-73
2022/08/04 09:08:21;;;;;;;10.52;3.45;;;29.60;89.80;;;;;;5090650;28;20051;-72
2022/08/04 09:11:08;;;;;;;11.38;3.33;;;29.80;89.70;;;;;;5079729;28;20044;-72
2022/08/04 09:13:54;;;;;;;9.95;3.20;;;29.90;88.50;;;;;;5066633;28;20048;-72
2022/08/04 09:16:37;;;;;;;10.57;3.28;;;29.90;88.80;;;;;;5072841;28;20040;-74
2022/08/04 09:19:51;;;;;;;11.30;3.17;;;30.00;87.20;;;;;;5088687;28;20123;-73
2022/08/04 09:22:28;;;;;;;9.98;3.20;;;30.00;85.90;;;;;;5075850;28;20511;-72
2022/08/04 09:25:25;;;;;;;9.93;2.90;;;30.00;85.40;;;;;;5061010;28;20051;-72
2022/08/04 09:27:54;;;;;;;10.68;2.90;;;30.00;85.10;;;;;;5079309;28;20053;-74
2022/08/04 09:30:40;;;;;;;18.30;3.50;;;30.00;86.30;;;;;;5064204;28;20078;-72
2022/08/04 09:33:27;;;;;;;9.75;3.10;;;30.20;85.10;;;;;;5072669;28;20048;-75
2022/08/04 09:36:00;;;;;;;10.10;3.05;;;30.50;84.90;;;;;;5085208;28;20052;-71
2022/08/04 09:38:34;;;;;;;9.93;2.85;;;30.80;83.20;;;;;;5074920;28;20418;-71
2022/08/04 09:41:09;;;;;;;10.30;2.90;;;31.10;82.90;;;;;;5076062;28;20105;-72
2022/08/04 09:43:44;;;;;;;8.05;2.95;;;31.40;79.20;;;;;;5081756;28;20060;-72
2022/08/04 09:46:25;;;;;;;8.90;2.70;;;31.50;79.00;;;;;;5068581;28;20135;-75
2022/08/04 09:49:15;;;;;;;11.20;2.83;;;31.70;76.00;;;;;;5089240;28;20085;-72
2022/08/04 09:52:22;;;;;;;8.25;2.90;;;31.60;74.10;;;;;;5069937;28;20287;-74
2022/08/04 09:55:03;;;;;;;9.65;2.90;;;31.70;73.60;;;;;;5071322;28;20063;-72
2022/08/04 09:57:44;;;;;;;7.60;2.63;;;31.70;72.70;;;;;;5074716;28;20044;-73
2022/08/04 10:00:15;;;;;;;10.43;2.95;;;31.90;72.90;;;;;;5089649;28;20154;-72
2022/08/04 10:03:01;;;;;;;;;;;32.10;72.50;;;;;;5086712;28;20051;-74
2022/08/04 10:05:48;;;;;;;9.13;2.90;;;32.40;70.30;;;;;;5061335;28;19924;-73
2022/08/04 10:08:40;;;;;;;11.05;2.97;;;32.50;70.80;;;;;;5060682;28;20483;-73
2022/08/04 10:11:20;;;;;;;8.90;2.78;;;32.60;70.70;;;;;;5079826;28;20045;-72
2022/08/04 10:14:03;;;;;;;8.10;2.50;;;32.50;68.90;;;;;;5065086;28;20040;-73
2022/08/04 10:16:44;;;;;;;8.95;2.90;;;32.60;70.30;;;;;;5070176;28;20058;-73
2022/08/04 10:19:19;;;;;;;8.18;2.83;;;32.50;70.40;;;;;;5083284;28;20051;-72
2022/08/04 10:21:54;;;;;;;8.40;2.90;;;32.40;70.50;;;;;;5063482;28;20056;-73
2022/08/04 10:24:57;;;;;;;11.50;2.85;;;32.30;70.60;;;;;;5072981;28;20040;-73
2022/08/04 10:27:42;;;;;;;7.43;3.00;;;32.40;70.90;;;;;;5082403;28;20032;-72
2022/08/04 10:30:12;;;;;;;12.68;3.30;;;32.30;70.10;;;;;;5064400;28;20048;-73
2022/08/04 10:32:46;;;;;;;10.33;3.00;;;32.10;68.50;;;;;;5062172;28;20467;-74
2022/08/04 10:35:21;;;;;;;10.15;3.20;;;31.90;69.20;;;;;;5064580;28;20282;-76
2022/08/04 10:38:14;;;;;;;9.45;3.00;;;31.80;69.50;;;;;;5062313;28;20526;-73
2022/08/04 10:40:45;;;;;;;10.20;3.40;;;31.70;69.90;;;;;;5076152;28;20045;-74
2022/08/04 10:43:29;;;;;;;11.52;3.88;;;31.60;68.90;;;;;;5061470;28;20054;-73
2022/08/04 10:46:13;;;;;;;10.43;3.35;;;31.20;69.70;;;;;;5078569;28;20131;-74
2022/08/04 10:48:59;;;;;;;6.53;2.80;;;31.10;71.70;;;;;;5078821;28;20051;-74
2022/08/04 10:52:04;;;;;;;9.65;3.30;;;31.00;72.80;;;;;;5070684;28;20047;-76
2022/08/04 10:54:42;;;;;;;10.25;3.63;;;30.80;72.90;;;;;;5078350;28;20037;-73
2022/08/04 10:57:19;;;;;;;9.25;4.10;;;30.60;74.00;;;;;;5066757;28;20080;-74
2022/08/04 11:00:03;;;;;;;10.38;3.85;;;30.60;75.40;;;;;;5082753;28;20045;-73
2022/08/04 11:02:52;;;;;;;12.88;3.90;;;30.40;78.30;;;;;;5047092;28;20043;-74
2022/08/04 11:05:28;;;;;;;10.75;4.05;;;30.60;79.90;;;;;;5068228;28;20051;-73
2022/08/04 11:08:10;;;;;;;9.43;3.67;;;30.80;80.30;;;;;;5071966;28;20044;-72
2022/08/04 11:11:02;;;;;;;9.27;3.58;;;31.00;80.50;;;;;;5069729;28;20051;-75
2022/08/04 11:14:06;;;;;;;9.82;4.10;;;31.20;80.40;;;;;;5032365;28;20070;-73
2022/08/04 11:16:50;;;;;;;10.40;3.90;;;31.30;80.40;;;;;;5064478;28;20491;-72
2022/08/04 11:19:41;;;;;;;9.50;3.63;;;31.30;80.60;;;;;;5068718;28;20564;-75
2022/08/04 11:22:24;;;;;;;7.85;3.33;;;31.20;80.10;;;;;;5087058;28;20427;-72
2022/08/04 11:25:13;;;;;;;9.82;3.63;;;30.90;78.30;;;;;;5067557;28;20040;-73
2022/08/04 11:27:48;;;;;;;11.98;3.47;;;30.60;78.40;;;;;;5068880;28;20041;-72
2022/08/04 11:30:16;;;;;;;10.48;3.50;;;30.30;79.60;;;;;;5086147;28;20043;-74
2022/08/04 11:33:05;;;;;;;13.38;3.40;;;30.20;78.60;;;;;;5069360;28;20055;-74
2022/08/04 11:35:43;;;;;;;8.18;2.88;;;30.10;79.10;;;;;;5066492;28;20032;-72
2022/08/04 11:38:43;;;;;;;9.45;3.00;;;30.10;78.00;;;;;;5062163;28;20121;-74
2022/08/04 11:41:16;;;;;;;9.05;2.53;;;30.00;78.40;;;;;;5053721;28;20056;-75
2022/08/04 11:43:54;;;;;;;10.02;3.28;;;30.00;79.50;;;;;;5065686;28;20097;-74
2022/08/04 11:46:38;;;;;;;9.15;3.20;;;30.00;79.60;;;;;;5084578;28;20383;-74
2022/08/04 11:49:20;;;;;;;8.13;3.13;;;30.00;80.40;;;;;;5070851;28;20044;-73
2022/08/04 11:51:49;;;;;;;8.27;2.67;;;30.00;80.70;;;;;;5069381;28;20044;-75
2022/08/04 11:54:16;;;;;;;8.07;3.00;;;30.00;80.70;;;;;;5068620;28;20083;-76
2022/08/04 11:56:41;;;;;;;9.23;2.88;;;29.90;78.90;;;;;;5073235;28;20076;-75
2022/08/04 11:59:07;;;;;;;9.35;2.90;;;29.70;79.60;;;;;;5091367;28;20067;-74
2022/08/04 12:02:05;;;;;;;8.07;2.50;;;29.60;79.70;;;;;;5073812;28;20044;-73
2022/08/04 12:04:56;;;;;;;7.65;2.70;;;29.50;79.70;;;;;;5073138;28;20451;-73
2022/08/04 12:07:39;;;;;;;7.80;2.60;;;29.30;80.30;;;;;;5070629;28;20071;-73
2022/08/04 12:10:32;;;;;;;7.75;2.70;;;29.20;80.80;;;;;;5069704;28;20056;-73
2022/08/04 12:13:11;;;;;;;7.68;2.25;;;29.00;80.90;;;;;;5089690;28;20121;-73
2022/08/04 12:15:51;;;;;;;8.95;2.38;;;29.00;81.00;;;;;;5059191;28;20055;-75
2022/08/04 12:18:31;;;;;;;6.72;2.53;;;28.90;81.50;;;;;;5066718;28;20045;-78
2022/08/04 12:21:00;;;;;;;6.80;2.35;;;28.80;82.50;;;;;;5089784;28;20044;-73
2022/08/04 12:23:32;;;;;;;7.75;2.60;;;28.70;83.20;;;;;;5071041;28;20040;-73
2022/08/04 12:26:07;;;;;;;8.15;2.30;;;28.60;83.90;;;;;;5073062;28;20121;-72
2022/08/04 12:28:42;;;;;;;7.43;2.25;;;28.40;85.00;;;;;;5073114;28;20498;-75
2022/08/04 12:31:40;;;;;;;10.07;2.50;;;28.30;86.20;;;;;;5073671;28;20106;-74
2022/08/04 12:34:12;;;;;;;7.85;2.42;;;28.20;84.50;;;;;;5055026;28;20040;-74
2022/08/04 12:36:56;;;;;;;8.68;2.40;;;28.00;85.70;;;;;;5090365;28;20036;-74
2022/08/04 12:39:25;;;;;;;7.47;2.47;;;27.90;86.50;;;;;;5071492;28;20077;-78
2022/08/04 12:42:21;;;;;;;12.10;2.28;;;27.80;87.50;;;;;;5060245;28;20382;-74
2022/08/04 12:44:52;;;;;;;9.10;2.42;;;27.70;87.40;;;;;;5076395;28;20055;-72
2022/08/04 12:47:23;;;;;;;13.20;2.58;;;27.50;88.10;;;;;;5074441;28;20039;-72
2022/08/04 12:49:50;;;;;;;8.43;2.23;;;27.30;90.10;;;;;;5071184;28;20069;-73
2022/08/04 12:52:19;;;;;;;8.30;2.60;;;27.20;90.80;;;;;;5067480;28;20060;-72
2022/08/04 12:54:47;;;;;;;10.00;2.90;;;27.00;92.40;;;;;;5073075;28;20129;-73
2022/08/04 12:57:17;;;;;;;10.23;2.60;;;26.70;94.70;;;;;;5068256;28;20046;-72
2022/08/04 12:59:44;;;;;;;12.32;2.80;;;26.50;96.20;;;;;;5072891;28;20067;-74
2022/08/04 13:02:26;;;;;;;9.82;2.85;;;26.40;97.80;;;;;;5063333;28;20040;-73
2022/08/04 13:04:54;;;;;;;9.20;2.75;;;26.30;99.90;;;;;;5066749;28;20130;-74
2022/08/04 13:07:23;;;;;;;7.78;2.47;;;26.10;99.90;;;;;;5065472;28;20498;-72
2022/08/04 13:09:50;;;;;;;7.75;2.50;;;25.90;99.90;;;;;;5064857;28;20123;-70
2022/08/04 13:12:28;;;;;;;6.72;2.10;;;25.70;99.90;;;;;;5064191;28;20499;-70
2022/08/04 13:15:05;;;;;;;6.57;2.05;;;25.60;99.90;;;;;;5076612;28;20040;-69
2022/08/04 13:17:48;;;;;;;7.40;2.35;;;25.40;99.90;;;;;;5086154;28;20055;-70
2022/08/04 13:20:14;;;;;;;6.22;2.28;;;25.40;99.90;;;;;;5072835;28;20105;-70
2022/08/04 13:22:41;;;;;;;6.72;2.60;;;25.40;99.90;;;;;;5075878;28;20132;-71
2022/08/04 13:25:07;;;;;;;5.82;2.40;;;25.40;99.90;;;;;;5078972;28;20165;-73
2022/08/04 13:27:36;;;;;;;5.53;2.20;;;25.40;99.90;;;;;;5073744;28;20045;-71
2022/08/04 13:30:03;;;;;;;6.82;2.42;;;25.50;99.90;;;;;;5071841;28;20380;-72
2022/08/04 13:32:30;;;;;;;6.45;2.50;;;25.70;99.90;;;;;;5073659;28;20060;-71
2022/08/04 13:34:59;;;;;;;7.15;2.67;;;25.90;99.90;;;;;;5058913;28;20176;-72